createdAt,value
2019-05-13T00:00:35.856Z,2.25
2019-05-13T00:03:05.084Z,4.33
2019-05-13T00:05:34.882Z,5.60
2019-05-13T00:08:04.138Z,3.42
2019-05-13T00:10:35.017Z,2.65
2019-05-13T00:13:04.780Z,4.55
2019-05-13T00:15:34.411Z,5.12
2019-05-13T00:18:04.088Z,6.33
2019-05-13T00:20:34.209Z,7.20
2019-05-13T00:23:04.116Z,4.33
2019-05-13T00:25:34.067Z,6.35
2019-05-13T00:28:04.247Z,2.90
2019-05-13T00:30:34.485Z,7.97
2019-05-13T00:33:04.060Z,4.47
2019-05-13T00:35:34.653Z,5.20
2019-05-13T00:38:04.253Z,4.30
2019-05-13T00:40:34.071Z,4.75
2019-05-13T00:43:04.080Z,3.90
2019-05-13T00:45:34.097Z,4.00
2019-05-13T00:48:04.465Z,5.22
2019-05-13T00:50:34.911Z,5.90
2019-05-13T00:53:24.897Z,4.92
2019-05-13T00:58:35.853Z,4.60
2019-05-13T01:01:05.370Z,4.37
2019-05-13T01:03:37.842Z,4.15
2019-05-13T01:06:07.440Z,5.95
2019-05-13T01:08:37.022Z,3.42
2019-05-13T01:11:06.723Z,4.85
2019-05-13T01:13:35.842Z,6.12
2019-05-13T01:16:05.328Z,6.17
2019-05-13T01:18:35.335Z,2.30
2019-05-13T01:21:04.652Z,8.33
2019-05-13T01:23:34.370Z,4.17
2019-05-13T01:26:04.062Z,6.03
2019-05-13T01:28:34.453Z,2.27
2019-05-13T01:31:13.403Z,3.25
2019-05-13T01:33:44.455Z,5.35
2019-05-13T01:36:13.525Z,4.42
2019-05-13T01:38:43.709Z,3.22
2019-05-13T01:41:13.658Z,2.92
2019-05-13T01:43:44.109Z,6.97
2019-05-13T01:46:13.728Z,6.05
2019-05-13T01:48:43.757Z,5.62
2019-05-13T01:51:13.836Z,4.22
2019-05-13T01:53:44.045Z,4.85
2019-05-13T01:56:34.281Z,8.30
2019-05-13T01:59:03.761Z,3.75
2019-05-13T02:01:33.703Z,3.72
2019-05-13T02:04:03.914Z,5.40
2019-05-13T02:06:44.127Z,4.58
2019-05-13T02:09:14.181Z,4.95
2019-05-13T02:11:46.230Z,5.67
2019-05-13T02:14:14.413Z,6.83
2019-05-13T02:16:44.598Z,2.27
2019-05-13T02:19:14.990Z,3.08
2019-05-13T02:21:44.147Z,4.03
2019-05-13T02:24:14.480Z,10.20
2019-05-13T02:26:44.031Z,3.05
2019-05-13T02:29:14.315Z,6.67
2019-05-13T02:31:50.955Z,7.35
2019-05-13T02:34:17.758Z,4.28
2019-05-13T02:36:46.955Z,6.72
2019-05-13T02:39:17.637Z,5.53
2019-05-13T02:41:46.926Z,3.98
2019-05-13T02:44:16.147Z,6.87
2019-05-13T02:46:45.657Z,5.33
2019-05-13T02:49:14.917Z,6.58
2019-05-13T02:51:43.989Z,5.15
2019-05-13T02:54:13.362Z,1.75
2019-05-13T02:56:42.939Z,4.92
2019-05-13T02:59:13.059Z,1.90
2019-05-13T03:01:45.553Z,4.17
2019-05-13T03:04:14.792Z,6.55
2019-05-13T03:06:44.030Z,3.90
2019-05-13T03:09:16.104Z,4.90
2019-05-13T03:11:45.455Z,4.50
2019-05-13T03:14:14.709Z,4.58
2019-05-13T03:16:52.514Z,3.08
2019-05-13T03:19:22.546Z,6.22
2019-05-13T03:21:52.884Z,4.90
2019-05-13T03:24:23.032Z,3.52
2019-05-13T03:26:53.380Z,2.40
2019-05-13T03:29:22.896Z,3.42
2019-05-13T03:31:55.752Z,3.17
2019-05-13T03:34:26.690Z,6.45
2019-05-13T03:36:56.765Z,4.25
2019-05-13T03:39:25.455Z,6.22
2019-05-13T03:41:57.316Z,7.97
2019-05-13T03:44:27.910Z,4.92
2019-05-13T03:46:58.895Z,5.95
2019-05-13T03:49:32.521Z,4.67
2019-05-13T03:52:03.081Z,7.60
2019-05-13T03:54:32.985Z,9.18
2019-05-13T03:57:03.570Z,8.60
2019-05-13T03:59:33.998Z,4.10
2019-05-13T04:02:03.730Z,5.58
2019-05-13T04:04:34.054Z,5.75
2019-05-13T04:07:03.737Z,7.72
2019-05-13T04:09:36.361Z,8.93
2019-05-13T04:12:14.050Z,5.60
2019-05-13T04:14:44.986Z,5.72
2019-05-13T04:17:14.760Z,5.22
2019-05-13T04:19:43.881Z,4.95
2019-05-13T04:22:13.336Z,5.28
2019-05-13T04:24:43.595Z,4.47
2019-05-13T04:27:13.572Z,5.22
2019-05-13T04:29:43.742Z,6.53
2019-05-13T04:32:13.386Z,7.87
2019-05-13T04:34:42.798Z,7.83
2019-05-13T04:37:13.512Z,8.85
2019-05-13T04:39:51.097Z,13.83
2019-05-13T04:42:15.236Z,7.53
2019-05-13T04:44:45.176Z,12.20
2019-05-13T04:47:14.954Z,10.48
2019-05-13T04:49:44.873Z,12.03
2019-05-13T04:52:23.961Z,10.65
2019-05-13T04:54:58.633Z,13.38
2019-05-13T04:57:29.109Z,10.48
2019-05-13T05:00:22.536Z,15.63
2019-05-13T05:03:22.924Z,7.72
2019-05-13T05:06:12.117Z,15.78
2019-05-13T05:09:22.544Z,12.90
2019-05-13T05:12:12.326Z,10.15
2019-05-13T05:15:08.404Z,16.73
2019-05-13T05:18:14.691Z,5.80
2019-05-13T05:20:57.927Z,14.07
2019-05-13T05:23:52.852Z,7.65
2019-05-13T05:27:01.461Z,14.03
2019-05-13T05:32:44.985Z,19.12
2019-05-13T05:35:52.008Z,10.08
2019-05-13T05:38:44.526Z,10.55
2019-05-13T05:41:18.251Z,10.75
2019-05-13T05:43:48.835Z,10.90
2019-05-13T05:46:23.781Z,13.83
2019-05-13T05:48:56.118Z,10.03
2019-05-13T05:51:26.062Z,15.45
2019-05-13T05:54:02.450Z,9.90
2019-05-13T05:56:34.269Z,12.23
2019-05-13T05:59:04.732Z,7.10
2019-05-13T06:01:52.347Z,10.03
2019-05-13T06:04:26.800Z,11.57
2019-05-13T06:06:57.609Z,9.40
2019-05-13T06:09:42.319Z,9.20
2019-05-13T06:12:13.909Z,14.33
2019-05-13T06:14:45.526Z,11.10
2019-05-13T06:17:15.254Z,8.88
2019-05-13T06:19:45.445Z,12.13
2019-05-13T06:22:21.625Z,7.30
2019-05-13T06:24:52.147Z,9.90
2019-05-13T06:27:22.469Z,10.50
2019-05-13T06:29:53.117Z,9.90
2019-05-13T06:35:18.146Z,13.32
2019-05-13T06:37:52.104Z,10.60
2019-05-13T06:40:22.514Z,7.45
2019-05-13T06:42:52.403Z,7.58
2019-05-13T06:45:21.925Z,11.63
2019-05-13T06:47:52.251Z,12.50
2019-05-13T06:50:22.063Z,10.53
2019-05-13T06:52:58.141Z,16.12
2019-05-13T06:55:28.224Z,8.63
2019-05-13T06:58:01.991Z,8.03
2019-05-13T07:00:34.960Z,9.68
2019-05-13T07:03:08.160Z,13.68
2019-05-13T07:05:37.257Z,10.38
2019-05-13T07:08:18.707Z,10.23
2019-05-13T07:10:51.396Z,11.05
2019-05-13T07:13:29.083Z,14.93
2019-05-13T07:16:18.852Z,12.80
2019-05-13T07:19:02.658Z,10.08
2019-05-13T07:21:38.466Z,13.05
2019-05-13T07:24:21.454Z,14.15
2019-05-13T07:26:53.785Z,10.50
2019-05-13T07:29:28.906Z,12.68
2019-05-13T07:32:28.072Z,12.00
2019-05-13T07:34:59.240Z,13.80
2019-05-13T07:37:31.848Z,9.80
2019-05-13T07:40:02.708Z,7.62
2019-05-13T07:42:33.505Z,6.37
2019-05-13T07:45:04.416Z,10.25
2019-05-13T07:47:56.139Z,9.55
2019-05-13T07:50:26.452Z,9.45
2019-05-13T07:53:02.083Z,12.25
2019-05-13T07:55:32.539Z,10.78
2019-05-13T07:58:02.499Z,8.58
2019-05-13T08:00:34.004Z,6.33
2019-05-13T08:03:12.278Z,7.25
2019-05-13T08:05:42.610Z,11.93
2019-05-13T08:08:12.100Z,9.58
2019-05-13T08:10:43.217Z,11.35
2019-05-13T08:13:14.511Z,8.88
2019-05-13T08:15:44.646Z,11.45
2019-05-13T08:18:16.186Z,11.38
2019-05-13T08:20:47.927Z,8.23
2019-05-13T08:23:34.386Z,6.87
2019-05-13T08:26:06.776Z,6.25
2019-05-13T08:29:03.151Z,15.10
2019-05-13T08:31:42.475Z,7.53
2019-05-13T08:34:13.660Z,10.58
2019-05-13T08:36:44.769Z,7.83
2019-05-13T08:39:37.934Z,8.58
2019-05-13T08:42:15.031Z,8.73
2019-05-13T08:47:57.685Z,13.35
2019-05-13T08:50:36.481Z,12.30
2019-05-13T08:53:06.489Z,6.95
2019-05-13T08:55:36.676Z,7.55
2019-05-13T08:58:22.122Z,5.62
2019-05-13T09:00:53.843Z,11.97
2019-05-13T09:03:24.650Z,9.05
2019-05-13T09:06:03.251Z,6.08
2019-05-13T09:08:34.620Z,6.28
2019-05-13T09:11:03.805Z,5.87
2019-05-13T09:13:33.283Z,7.35
2019-05-13T09:16:04.764Z,5.92
2019-05-13T09:18:34.153Z,7.42
2019-05-13T09:21:03.216Z,6.15
2019-05-13T09:23:32.613Z,7.37
2019-05-13T09:26:02.632Z,6.10
2019-05-13T09:28:33.049Z,6.87
2019-05-13T09:31:02.495Z,9.23
2019-05-13T09:33:38.937Z,8.48
2019-05-13T09:36:08.201Z,12.23
2019-05-13T09:38:38.154Z,7.50
2019-05-13T09:41:07.778Z,15.70
2019-05-13T09:43:37.621Z,6.20
2019-05-13T09:46:07.871Z,9.38
2019-05-13T09:48:37.689Z,16.20
2019-05-13T09:51:08.234Z,9.83
2019-05-13T09:53:37.904Z,6.40
2019-05-13T09:56:07.179Z,6.17
2019-05-13T09:58:36.395Z,7.28
2019-05-13T10:01:05.762Z,7.72
2019-05-13T10:03:52.019Z,7.08
2019-05-13T10:06:06.393Z,10.80
2019-05-13T10:08:36.756Z,6.10
2019-05-13T10:11:05.736Z,7.50
2019-05-13T10:13:35.367Z,5.97
2019-05-13T10:16:04.393Z,5.55
2019-05-13T10:18:33.407Z,6.90
2019-05-13T10:21:05.171Z,10.08
2019-05-13T10:23:34.538Z,3.70
2019-05-13T10:26:06.453Z,8.45
2019-05-13T10:28:35.916Z,20.65
2019-05-13T10:31:06.552Z,9.00
2019-05-13T10:33:35.899Z,5.83
2019-05-13T10:36:05.311Z,5.00
2019-05-13T10:38:34.429Z,4.72
2019-05-13T10:41:03.959Z,4.47
2019-05-13T10:43:39.086Z,5.85
2019-05-13T10:46:04.255Z,5.60
2019-05-13T10:48:33.702Z,10.35
2019-05-13T10:51:03.098Z,4.53
2019-05-13T10:53:35.569Z,4.45
2019-05-13T10:56:04.768Z,7.85
2019-05-13T10:58:34.582Z,8.48
2019-05-13T11:01:04.472Z,4.90
2019-05-13T11:03:33.785Z,6.15
2019-05-13T11:06:03.933Z,5.33
2019-05-13T11:08:33.647Z,10.03
2019-05-13T11:11:03.509Z,6.10
2019-05-13T11:13:50.702Z,4.75
2019-05-13T11:16:05.476Z,2.47
2019-05-13T11:18:41.435Z,3.37
2019-05-13T11:21:13.082Z,8.63
2019-05-13T11:23:42.323Z,6.72
2019-05-13T11:26:13.030Z,2.33
2019-05-13T11:28:43.002Z,6.80
2019-05-13T11:31:13.491Z,3.67
2019-05-13T11:33:43.269Z,6.70
2019-05-13T11:36:18.559Z,2.87
2019-05-13T11:38:43.814Z,3.27
2019-05-13T11:41:13.654Z,7.37
2019-05-13T11:43:43.178Z,3.30
2019-05-13T11:46:13.090Z,7.45
2019-05-13T11:48:42.758Z,4.47
2019-05-13T11:51:13.039Z,3.62
2019-05-13T11:54:14.045Z,4.50
2019-05-13T11:56:48.452Z,9.93
2019-05-13T11:59:14.065Z,5.37
2019-05-13T12:01:43.711Z,2.98
2019-05-13T12:04:12.989Z,8.78
2019-05-13T12:06:47.984Z,2.80
2019-05-13T12:09:17.816Z,1.75
2019-05-13T12:11:47.396Z,2.45
2019-05-13T12:14:39.155Z,4.72
2019-05-13T12:17:02.276Z,4.62
2019-05-13T12:19:31.698Z,11.30
2019-05-13T12:22:03.958Z,4.90
2019-05-13T12:24:33.165Z,3.00
2019-05-13T12:27:03.655Z,3.80
2019-05-13T12:29:54.364Z,2.37
2019-05-13T12:32:24.067Z,5.50
2019-05-13T12:34:54.330Z,3.58
2019-05-13T12:37:26.024Z,3.12
2019-05-13T12:39:55.310Z,7.45
2019-05-13T12:42:25.581Z,6.42
2019-05-13T12:45:16.191Z,5.03
2019-05-13T12:47:46.995Z,2.90
2019-05-13T12:50:18.405Z,7.53
2019-05-13T12:53:08.532Z,4.60
2019-05-13T12:55:37.882Z,5.60
2019-05-13T12:58:07.949Z,4.17
2019-05-13T13:00:43.385Z,2.30
2019-05-13T13:03:13.588Z,1.77
2019-05-13T13:05:43.481Z,2.95
2019-05-13T13:08:37.929Z,4.33
2019-05-13T13:10:53.350Z,3.58
2019-05-13T13:13:23.161Z,4.45
2019-05-13T13:16:18.695Z,3.65
2019-05-13T13:18:52.150Z,3.55
2019-05-13T13:21:24.414Z,6.45
2019-05-13T13:24:04.051Z,3.95
2019-05-13T13:26:33.325Z,1.35
2019-05-13T13:29:01.332Z,3.22
2019-05-13T13:31:43.460Z,1.37
2019-05-13T13:34:33.970Z,2.77
2019-05-13T13:37:05.112Z,2.85
2019-05-13T13:40:03.262Z,3.70
2019-05-13T13:42:33.008Z,1.20
2019-05-13T13:45:06.028Z,3.45
2019-05-13T13:47:37.973Z,1.95
2019-05-13T13:50:08.344Z,4.78
2019-05-13T13:52:38.243Z,5.60
2019-05-13T13:55:15.932Z,3.65
2019-05-13T13:57:44.952Z,4.47
2019-05-13T14:00:31.884Z,2.67
2019-05-13T14:05:43.356Z,5.42
2019-05-13T14:08:13.452Z,2.50
2019-05-13T14:10:54.948Z,1.60
2019-05-13T14:13:35.184Z,2.37
2019-05-13T14:16:22.490Z,2.90
2019-05-13T14:18:45.960Z,3.12
2019-05-13T14:21:16.898Z,1.83
2019-05-13T14:23:46.657Z,3.55
2019-05-13T14:26:27.612Z,1.32
2019-05-13T14:28:58.195Z,9.68
2019-05-13T14:31:27.902Z,5.60
2019-05-13T14:33:57.652Z,5.30
2019-05-13T14:36:27.418Z,1.80
2019-05-13T14:39:02.812Z,1.45
2019-05-13T14:41:33.095Z,2.50
2019-05-13T14:44:03.663Z,1.65
2019-05-13T14:46:47.678Z,4.30
2019-05-13T14:49:14.875Z,3.62
2019-05-13T14:51:44.210Z,5.03
2019-05-13T14:54:17.687Z,3.20
2019-05-13T14:56:52.525Z,1.45
2019-05-13T14:59:22.114Z,5.25
2019-05-13T15:02:11.933Z,3.85
2019-05-13T15:04:42.070Z,3.95
2019-05-13T15:07:12.577Z,4.00
2019-05-13T15:09:42.239Z,3.05
2019-05-13T15:12:11.844Z,4.03
2019-05-13T15:14:45.658Z,2.40
2019-05-13T15:17:25.241Z,3.47
2019-05-13T15:19:55.401Z,1.42
2019-05-13T15:22:24.978Z,6.58
2019-05-13T15:24:54.250Z,3.33
2019-05-13T15:27:24.491Z,1.92
2019-05-13T15:30:18.083Z,2.87
2019-05-13T15:33:13.150Z,1.90
2019-05-13T15:35:43.264Z,1.95
2019-05-13T15:38:13.025Z,1.55
2019-05-13T15:40:42.713Z,2.35
2019-05-13T15:43:12.920Z,2.50
2019-05-13T15:45:46.473Z,1.90
2019-05-13T15:48:15.821Z,3.15
2019-05-13T15:50:46.658Z,2.35
2019-05-13T15:56:14.495Z,2.60
2019-05-13T15:58:44.496Z,3.37
2019-05-13T16:03:55.675Z,3.25
2019-05-13T16:06:28.841Z,2.12
2019-05-13T16:09:02.754Z,2.90
2019-05-13T16:11:32.740Z,5.35
2019-05-13T16:14:23.146Z,2.10
2019-05-13T16:16:57.832Z,3.83
2019-05-13T16:19:32.386Z,6.47
2019-05-13T16:22:01.349Z,3.92
2019-05-13T16:24:32.252Z,3.20
2019-05-13T16:27:02.540Z,2.92
2019-05-13T16:29:33.569Z,4.37
2019-05-13T16:32:28.492Z,3.95
2019-05-13T16:34:58.090Z,3.12
2019-05-13T16:37:28.098Z,1.75
2019-05-13T16:40:04.729Z,2.40
2019-05-13T16:42:33.998Z,3.22
2019-05-13T16:45:03.214Z,4.30
2019-05-13T16:48:00.774Z,2.65
2019-05-13T16:50:31.120Z,3.12
2019-05-13T16:53:01.705Z,5.28
2019-05-13T16:55:42.285Z,3.85
2019-05-13T16:58:12.744Z,2.80
2019-05-13T17:00:42.808Z,3.20
2019-05-13T17:03:11.841Z,3.83
2019-05-13T17:05:42.032Z,4.05
2019-05-13T17:08:11.018Z,3.50
2019-05-13T17:10:45.095Z,4.95
2019-05-13T17:13:14.319Z,5.78
2019-05-13T17:18:45.306Z,3.77
2019-05-13T17:21:14.632Z,3.55
2019-05-13T17:23:43.655Z,1.60
2019-05-13T17:26:12.584Z,4.03
2019-05-13T17:29:02.202Z,2.58
2019-05-13T17:31:32.566Z,8.20
2019-05-13T17:34:01.741Z,1.80
2019-05-13T17:36:32.532Z,2.85
2019-05-13T17:39:01.751Z,1.52
2019-05-13T17:41:46.914Z,5.03
2019-05-13T17:44:15.831Z,6.72
2019-05-13T17:46:44.988Z,4.22
2019-05-13T17:49:24.115Z,5.10
2019-05-13T17:51:53.604Z,3.95
2019-05-13T17:54:22.496Z,2.33
2019-05-13T17:56:52.013Z,2.05
2019-05-13T17:59:21.833Z,2.42
2019-05-13T18:02:11.611Z,2.80
2019-05-13T18:04:41.544Z,3.92
2019-05-13T18:07:12.176Z,4.40
2019-05-13T18:09:45.828Z,1.72
2019-05-13T18:12:41.974Z,5.50
2019-05-13T18:15:11.688Z,1.75
2019-05-13T18:17:42.008Z,3.75
2019-05-13T18:20:12.033Z,2.37
2019-05-13T18:22:42.125Z,3.62
2019-05-13T18:25:34.810Z,3.83
2019-05-13T18:28:04.560Z,1.87
2019-05-13T18:30:36.149Z,3.90
2019-05-13T18:33:05.813Z,1.62
2019-05-13T18:35:35.547Z,2.27
2019-05-13T18:38:06.901Z,2.67
2019-05-13T18:40:48.508Z,7.00
2019-05-13T18:43:21.376Z,2.83
2019-05-13T18:45:52.584Z,2.95
2019-05-13T18:48:58.643Z,2.22
2019-05-13T18:51:42.158Z,5.62
2019-05-13T18:54:11.870Z,5.53
2019-05-13T18:57:03.939Z,1.32
2019-05-13T18:59:34.726Z,2.95
2019-05-13T19:02:05.337Z,3.27
2019-05-13T19:04:42.239Z,4.37
2019-05-13T19:07:13.510Z,3.87
2019-05-13T19:09:43.248Z,3.22
2019-05-13T19:12:18.376Z,4.33
2019-05-13T19:14:48.063Z,3.17
2019-05-13T19:17:19.419Z,2.45
2019-05-13T19:20:15.238Z,2.15
2019-05-13T19:22:46.898Z,1.75
2019-05-13T19:25:16.880Z,3.20
2019-05-13T19:27:56.867Z,3.65
2019-05-13T19:30:27.457Z,2.10
2019-05-13T19:32:58.125Z,2.77
2019-05-13T19:35:36.658Z,1.20
2019-05-13T19:38:07.063Z,2.77
2019-05-13T19:40:37.097Z,6.35
2019-05-13T19:43:33.759Z,4.33
2019-05-13T19:46:04.014Z,2.05
2019-05-13T19:48:34.167Z,2.25
2019-05-13T19:51:14.429Z,1.07
2019-05-13T19:54:11.715Z,2.25
2019-05-13T19:57:02.896Z,0.80
2019-05-13T19:59:44.191Z,4.75
2019-05-13T20:02:17.988Z,4.83
2019-05-13T20:05:01.063Z,3.62
2019-05-13T20:07:54.294Z,4.00
2019-05-13T20:10:44.884Z,4.47
2019-05-13T20:13:19.022Z,4.35
2019-05-13T20:18:48.691Z,3.35
2019-05-13T20:21:19.804Z,2.05
2019-05-13T20:23:58.249Z,3.70
2019-05-13T20:26:35.640Z,2.27
2019-05-13T20:29:04.426Z,1.50
2019-05-13T20:31:33.763Z,4.50
2019-05-13T20:34:16.527Z,3.85
2019-05-13T20:36:47.995Z,2.45
2019-05-13T20:39:26.494Z,2.02
2019-05-13T20:42:14.240Z,2.08
2019-05-13T20:44:54.559Z,2.27
2019-05-13T20:47:28.203Z,6.10
2019-05-13T20:50:02.339Z,1.65
2019-05-13T20:52:44.955Z,3.33
2019-05-13T20:58:58.175Z,2.10
2019-05-13T21:07:45.250Z,1.77
2019-05-13T21:13:51.750Z,3.00
2019-05-13T21:16:30.677Z,2.45
2019-05-13T21:19:06.670Z,3.72
2019-05-13T21:21:37.693Z,3.65
2019-05-13T21:24:17.643Z,2.02
2019-05-13T21:26:48.034Z,1.27
2019-05-13T21:29:17.475Z,2.80
2019-05-13T21:34:23.188Z,1.65
2019-05-13T21:36:52.826Z,1.82
2019-05-13T21:39:22.806Z,2.40
2019-05-13T21:41:52.525Z,4.35
2019-05-13T21:44:29.549Z,4.20
2019-05-13T21:47:02.170Z,4.90
2019-05-13T21:49:32.131Z,2.98
2019-05-13T21:52:14.745Z,1.98
2019-05-13T21:54:45.357Z,2.65
2019-05-13T21:57:15.170Z,1.30
2019-05-13T21:59:51.951Z,2.45
2019-05-13T22:02:23.399Z,5.90
2019-05-13T22:04:53.485Z,2.27
2019-05-13T22:07:33.290Z,4.37
2019-05-13T22:10:24.740Z,5.97
2019-05-13T22:12:54.510Z,1.65
2019-05-13T22:15:52.253Z,4.30
2019-05-13T22:18:41.773Z,3.45
2019-05-13T22:21:12.502Z,5.65
2019-05-13T22:23:51.603Z,3.33
2019-05-13T22:26:22.082Z,4.67
2019-05-13T22:28:52.211Z,2.40
2019-05-13T22:31:22.836Z,4.25
2019-05-13T22:33:53.047Z,4.90
2019-05-13T22:36:23.531Z,1.80
2019-05-13T22:39:06.334Z,3.15
2019-05-13T22:41:36.935Z,2.67
2019-05-13T22:44:06.700Z,4.20
2019-05-13T22:47:05.069Z,3.90
2019-05-13T22:49:35.379Z,3.77
2019-05-13T22:52:25.731Z,1.32
2019-05-13T22:55:03.779Z,1.62
2019-05-13T22:57:35.355Z,2.85
2019-05-13T23:00:07.279Z,1.62
2019-05-13T23:02:44.803Z,2.12
2019-05-13T23:05:15.179Z,2.45
2019-05-13T23:07:45.781Z,2.47
2019-05-13T23:10:22.494Z,3.10
2019-05-13T23:15:22.809Z,2.92
2019-05-13T23:17:52.406Z,1.35
2019-05-13T23:20:23.267Z,2.05
2019-05-13T23:22:52.845Z,8.30
2019-05-13T23:25:47.754Z,3.22
2019-05-13T23:28:18.436Z,2.92
2019-05-13T23:30:50.997Z,2.20
2019-05-13T23:33:21.976Z,3.22
2019-05-13T23:36:13.731Z,4.58
2019-05-13T23:38:46.796Z,1.65
2019-05-13T23:41:32.620Z,4.08
2019-05-13T23:44:03.669Z,1.57
2019-05-13T23:49:34.746Z,4.15
2019-05-13T23:52:05.889Z,3.02
2019-05-13T23:54:35.804Z,5.12
2019-05-13T23:57:05.364Z,3.55
2019-05-13T23:59:35.890Z,10.58
